WXcenter Banner NOAA Logo links to NOAA website FRD Logo links to FRD website

NOAA INL CURRENT OBSERVATIONS


NOAA AIR RESOURCES LABORATORY
MESONET WEATHER CONDITIONS FOR 23-May-22

Towers located at INL Facilities:

                      Time  Dir/Spd  Temp  WC  RH  Pres.
Location              MDT   deg/mph   (F)  (F)  %  In.Hg

ATR                  06:25  219/  5    25  19  93  25.22
CFA                  06:25  194/  4    26  20  89  25.19
CIT                  06:25  159/  2    29  29  94  25.21
INTEC                06:25  230/  2    26  26  93  25.21
MFC                  06:25   94/  4    28  23  92  25.01
NRF                  06:25  165/  4    28  23 100  25.26
RWMC                 06:25  220/  4    27  22  95  25.10
SMC                  06:25  317/  4    29  24  87  25.32

Other towers located inside the INL:

                      Time  Dir/Spd  Temp  WC  RH  Pres.
Location              MDT   deg/mph   (F)  (F)  %  In.Hg

Base of Howe Peak    06:25   38/  2    26  26  93  25.20
Deadman Canyon       06:25   45/  6    33  28  79  25.01
Lost River           06:25  249/  5    26  20  93  25.13
Rover                06:25  298/  8    36  30  71  25.12
Sand Dunes           06:25  258/  3    31  31  79  25.29

Towers located outside the INL:

                      Time  Dir/Spd  Temp  WC  RH  Pres.
Location              MDT   deg/mph   (F)  (F)  %  In.Hg

Aberdeen             06:25  329/  4    28  23 100  25.70
Arco                 06:25  311/  8    31  24  87
Atomic City          06:25  140/  3    27  27  88  25.10
Blackfoot            06:20  179/  3    31  27  87  25.61
Blue Dome            06:25  323/ 17    31  20  79
Cox's Well           06:25  334/  7    32  26  87
Craters of the Moon  06:25   15/  5    36  32  59  24.22
Dubois               06:25  336/  8    32  25  81  24.69
Fort Hall            06:25   93/  3    28  28  99  25.62
Hamer                06:25   61/  4    27  22  97
Howe                 06:25   28/  3    29  26  82
Idaho Falls (REC)    06:20  188/  2    34  34  96  25.41
Kettle Butte         06:25  311/  9    32  24  85  24.94
Minidoka             06:15   98/ 12    32  23  --  25.79
Monteview            06:25   35/  3    26  26  92  25.32
Richfield            06:25   14/ 14    32  22  92  25.74
Roberts              06:25  349/  3    28  28  --
Sugar City           06:20   58/  0    29  29  --  25.22
Taber                06:25  334/  6    27  20  88
Terreton             06:25  222/  4    30  25  89  25.33

Updated every 5 minutes. Unreviewed data; maintenance may cause some errors.
Current conditions: 526-8884   Info: 526-2744
            

This page automatically refreshes every 5 minutes.


Modified: March 1, 2011
Dept. of Commerce |  NOAA |  NOAA Research |  ARL |  FRD Privacy |  Disclaimer |  Information Quality |  webmaster